sensor_id;sensor_type;location;lat;lon;timestamp;temperature;humidity
39045;DHT22;52192;52.002;5.956;2023-08-06T00:00:22;18.30;83.10
39045;DHT22;52192;52.002;5.956;2023-08-06T00:02:48;18.30;83.10
39045;DHT22;52192;52.002;5.956;2023-08-06T00:05:14;18.20;83.10
39045;DHT22;52192;52.002;5.956;2023-08-06T00:07:44;18.30;83.10
39045;DHT22;52192;52.002;5.956;2023-08-06T00:10:10;18.30;83.10
39045;DHT22;52192;52.002;5.956;2023-08-06T00:12:36;18.30;83.10
39045;DHT22;52192;52.002;5.956;2023-08-06T00:15:01;18.30;83.20
39045;DHT22;52192;52.002;5.956;2023-08-06T00:17:27;18.30;83.10
39045;DHT22;52192;52.002;5.956;2023-08-06T00:19:53;18.30;83.20
39045;DHT22;52192;52.002;5.956;2023-08-06T00:22:18;18.30;83.20
39045;DHT22;52192;52.002;5.956;2023-08-06T00:24:44;18.30;83.20
39045;DHT22;52192;52.002;5.956;2023-08-06T00:27:10;18.30;83.20
39045;DHT22;52192;52.002;5.956;2023-08-06T00:29:36;18.30;83.20
39045;DHT22;52192;52.002;5.956;2023-08-06T00:32:01;18.30;83.20
39045;DHT22;52192;52.002;5.956;2023-08-06T00:34:27;18.30;83.20
39045;DHT22;52192;52.002;5.956;2023-08-06T00:36:52;18.30;83.30
39045;DHT22;52192;52.002;5.956;2023-08-06T00:39:19;18.30;83.40
39045;DHT22;52192;52.002;5.956;2023-08-06T00:41:45;18.30;83.40
39045;DHT22;52192;52.002;5.956;2023-08-06T00:44:10;18.30;83.40
39045;DHT22;52192;52.002;5.956;2023-08-06T00:46:36;18.20;83.30
39045;DHT22;52192;52.002;5.956;2023-08-06T00:49:02;18.20;83.40
39045;DHT22;52192;52.002;5.956;2023-08-06T00:51:27;18.20;83.50
39045;DHT22;52192;52.002;5.956;2023-08-06T00:53:54;18.20;83.50
39045;DHT22;52192;52.002;5.956;2023-08-06T00:56:20;18.20;83.50
39045;DHT22;52192;52.002;5.956;2023-08-06T00:58:46;18.20;83.50
39045;DHT22;52192;52.002;5.956;2023-08-06T01:01:12;18.10;83.50
39045;DHT22;52192;52.002;5.956;2023-08-06T01:03:38;18.10;83.60
39045;DHT22;52192;52.002;5.956;2023-08-06T01:06:04;18.00;83.70
39045;DHT22;52192;52.002;5.956;2023-08-06T01:08:52;18.00;83.90
39045;DHT22;52192;52.002;5.956;2023-08-06T01:11:48;18.00;83.90
39045;DHT22;52192;52.002;5.956;2023-08-06T01:14:33;18.00;83.90
39045;DHT22;52192;52.002;5.956;2023-08-06T01:17:04;18.00;84.00
39045;DHT22;52192;52.002;5.956;2023-08-06T01:19:30;17.90;84.10
39045;DHT22;52192;52.002;5.956;2023-08-06T01:21:56;17.90;84.10
39045;DHT22;52192;52.002;5.956;2023-08-06T01:24:21;18.00;84.20
39045;DHT22;52192;52.002;5.956;2023-08-06T01:27:14;17.90;84.10
39045;DHT22;52192;52.002;5.956;2023-08-06T01:29:46;18.00;84.10
39045;DHT22;52192;52.002;5.956;2023-08-06T01:32:14;17.90;84.20
39045;DHT22;52192;52.002;5.956;2023-08-06T01:34:42;17.90;84.30
39045;DHT22;52192;52.002;5.956;2023-08-06T01:37:09;17.90;84.30
39045;DHT22;52192;52.002;5.956;2023-08-06T01:39:36;17.90;84.30
39045;DHT22;52192;52.002;5.956;2023-08-06T01:42:02;17.90;84.40
39045;DHT22;52192;52.002;5.956;2023-08-06T01:44:28;17.90;84.50
39045;DHT22;52192;52.002;5.956;2023-08-06T01:46:53;17.90;84.50
39045;DHT22;52192;52.002;5.956;2023-08-06T01:49:19;17.90;84.50
39045;DHT22;52192;52.002;5.956;2023-08-06T01:51:45;17.90;84.50
39045;DHT22;52192;52.002;5.956;2023-08-06T01:54:10;17.90;84.50
39045;DHT22;52192;52.002;5.956;2023-08-06T01:56:36;17.90;84.50
39045;DHT22;52192;52.002;5.956;2023-08-06T01:59:01;18.00;84.60
39045;DHT22;52192;52.002;5.956;2023-08-06T02:01:27;18.00;84.60
39045;DHT22;52192;52.002;5.956;2023-08-06T02:03:53;18.00;84.60
39045;DHT22;52192;52.002;5.956;2023-08-06T02:06:18;18.00;84.60
39045;DHT22;52192;52.002;5.956;2023-08-06T02:08:44;18.00;84.70
39045;DHT22;52192;52.002;5.956;2023-08-06T02:11:10;18.00;84.60
39045;DHT22;52192;52.002;5.956;2023-08-06T02:13:36;18.00;84.60
39045;DHT22;52192;52.002;5.956;2023-08-06T02:16:01;18.00;84.50
39045;DHT22;52192;52.002;5.956;2023-08-06T02:18:27;18.00;84.50
39045;DHT22;52192;52.002;5.956;2023-08-06T02:20:59;18.00;84.60
39045;DHT22;52192;52.002;5.956;2023-08-06T02:23:26;18.00;84.60
39045;DHT22;52192;52.002;5.956;2023-08-06T02:26:02;18.00;84.80
39045;DHT22;52192;52.002;5.956;2023-08-06T02:28:31;18.00;84.80
39045;DHT22;52192;52.002;5.956;2023-08-06T02:30:57;18.00;84.80
39045;DHT22;52192;52.002;5.956;2023-08-06T02:33:23;18.00;84.80
39045;DHT22;52192;52.002;5.956;2023-08-06T02:35:49;18.00;84.80
39045;DHT22;52192;52.002;5.956;2023-08-06T02:38:15;18.00;84.80
39045;DHT22;52192;52.002;5.956;2023-08-06T02:40:47;18.00;84.80
39045;DHT22;52192;52.002;5.956;2023-08-06T02:43:13;18.00;84.90
39045;DHT22;52192;52.002;5.956;2023-08-06T02:45:39;18.00;84.90
39045;DHT22;52192;52.002;5.956;2023-08-06T02:48:04;18.10;84.90
39045;DHT22;52192;52.002;5.956;2023-08-06T02:50:30;18.00;84.80
39045;DHT22;52192;52.002;5.956;2023-08-06T02:52:56;18.10;84.90
39045;DHT22;52192;52.002;5.956;2023-08-06T02:55:21;18.00;84.80
39045;DHT22;52192;52.002;5.956;2023-08-06T02:57:47;18.10;84.90
39045;DHT22;52192;52.002;5.956;2023-08-06T03:00:13;18.00;84.90
39045;DHT22;52192;52.002;5.956;2023-08-06T03:02:38;18.00;84.90
39045;DHT22;52192;52.002;5.956;2023-08-06T03:05:04;18.10;85.00
39045;DHT22;52192;52.002;5.956;2023-08-06T03:07:31;18.00;84.90
39045;DHT22;52192;52.002;5.956;2023-08-06T03:09:59;18.10;84.90
39045;DHT22;52192;52.002;5.956;2023-08-06T03:12:27;18.00;84.90
39045;DHT22;52192;52.002;5.956;2023-08-06T03:14:52;18.10;84.90
39045;DHT22;52192;52.002;5.956;2023-08-06T03:17:18;18.10;84.80
39045;DHT22;52192;52.002;5.956;2023-08-06T03:19:44;18.00;84.80
39045;DHT22;52192;52.002;5.956;2023-08-06T03:22:09;18.00;84.90
39045;DHT22;52192;52.002;5.956;2023-08-06T03:24:35;18.00;85.00
39045;DHT22;52192;52.002;5.956;2023-08-06T03:27:01;18.00;85.00
39045;DHT22;52192;52.002;5.956;2023-08-06T03:29:27;18.00;85.00
39045;DHT22;52192;52.002;5.956;2023-08-06T03:31:52;18.00;85.00
39045;DHT22;52192;52.002;5.956;2023-08-06T03:34:18;18.00;85.00
39045;DHT22;52192;52.002;5.956;2023-08-06T03:36:44;18.00;85.00
39045;DHT22;52192;52.002;5.956;2023-08-06T03:39:10;18.00;84.90
39045;DHT22;52192;52.002;5.956;2023-08-06T03:41:35;18.00;84.90
39045;DHT22;52192;52.002;5.956;2023-08-06T03:44:01;18.00;84.90
39045;DHT22;52192;52.002;5.956;2023-08-06T03:46:29;18.00;84.90
39045;DHT22;52192;52.002;5.956;2023-08-06T03:48:55;18.00;84.80
39045;DHT22;52192;52.002;5.956;2023-08-06T03:51:22;18.00;84.80
39045;DHT22;52192;52.002;5.956;2023-08-06T03:53:47;18.00;84.80
39045;DHT22;52192;52.002;5.956;2023-08-06T03:56:13;18.00;84.80
39045;DHT22;52192;52.002;5.956;2023-08-06T03:58:39;18.00;84.80
39045;DHT22;52192;52.002;5.956;2023-08-06T04:01:04;18.00;84.80
39045;DHT22;52192;52.002;5.956;2023-08-06T04:03:31;18.10;84.90
39045;DHT22;52192;52.002;5.956;2023-08-06T04:05:57;18.00;84.80
39045;DHT22;52192;52.002;5.956;2023-08-06T04:08:23;18.00;84.90
39045;DHT22;52192;52.002;5.956;2023-08-06T04:10:52;18.00;84.90
39045;DHT22;52192;52.002;5.956;2023-08-06T04:13:18;18.00;84.90
39045;DHT22;52192;52.002;5.956;2023-08-06T04:15:44;18.00;84.90
39045;DHT22;52192;52.002;5.956;2023-08-06T04:18:09;18.00;85.00
39045;DHT22;52192;52.002;5.956;2023-08-06T04:20:42;18.00;85.00
39045;DHT22;52192;52.002;5.956;2023-08-06T04:23:09;18.00;85.00
39045;DHT22;52192;52.002;5.956;2023-08-06T04:25:34;18.00;85.00
39045;DHT22;52192;52.002;5.956;2023-08-06T04:28:00;18.00;85.00
39045;DHT22;52192;52.002;5.956;2023-08-06T04:30:25;18.00;85.10
39045;DHT22;52192;52.002;5.956;2023-08-06T04:32:51;18.00;85.10
39045;DHT22;52192;52.002;5.956;2023-08-06T04:35:17;18.00;85.10
39045;DHT22;52192;52.002;5.956;2023-08-06T04:37:42;18.00;85.10
39045;DHT22;52192;52.002;5.956;2023-08-06T04:40:08;18.00;85.10
39045;DHT22;52192;52.002;5.956;2023-08-06T04:42:34;18.00;85.20
39045;DHT22;52192;52.002;5.956;2023-08-06T04:45:01;18.00;85.20
39045;DHT22;52192;52.002;5.956;2023-08-06T04:47:27;18.00;85.20
39045;DHT22;52192;52.002;5.956;2023-08-06T04:49:53;18.10;85.20
39045;DHT22;52192;52.002;5.956;2023-08-06T04:52:19;18.10;85.20
39045;DHT22;52192;52.002;5.956;2023-08-06T04:54:44;18.10;85.20
39045;DHT22;52192;52.002;5.956;2023-08-06T04:57:10;18.10;85.10
39045;DHT22;52192;52.002;5.956;2023-08-06T04:59:36;18.10;85.00
39045;DHT22;52192;52.002;5.956;2023-08-06T05:02:01;18.20;85.10
39045;DHT22;52192;52.002;5.956;2023-08-06T05:04:27;18.20;85.10
39045;DHT22;52192;52.002;5.956;2023-08-06T05:06:53;18.20;85.10
39045;DHT22;52192;52.002;5.956;2023-08-06T05:09:19;18.20;85.10
39045;DHT22;52192;52.002;5.956;2023-08-06T05:11:46;18.20;85.00
39045;DHT22;52192;52.002;5.956;2023-08-06T05:14:12;18.20;85.00
39045;DHT22;52192;52.002;5.956;2023-08-06T05:16:38;18.30;85.10
39045;DHT22;52192;52.002;5.956;2023-08-06T05:19:04;18.30;85.00
39045;DHT22;52192;52.002;5.956;2023-08-06T05:21:29;18.30;85.00
39045;DHT22;52192;52.002;5.956;2023-08-06T05:23:55;18.30;85.00
39045;DHT22;52192;52.002;5.956;2023-08-06T05:26:21;18.30;85.00
39045;DHT22;52192;52.002;5.956;2023-08-06T05:28:47;18.40;85.10
39045;DHT22;52192;52.002;5.956;2023-08-06T05:31:12;18.40;85.10
39045;DHT22;52192;52.002;5.956;2023-08-06T05:33:38;18.40;85.00
39045;DHT22;52192;52.002;5.956;2023-08-06T05:36:04;18.40;85.00
39045;DHT22;52192;52.002;5.956;2023-08-06T05:38:30;18.40;85.00
39045;DHT22;52192;52.002;5.956;2023-08-06T05:40:55;18.50;85.10
39045;DHT22;52192;52.002;5.956;2023-08-06T05:43:22;18.50;85.00
39045;DHT22;52192;52.002;5.956;2023-08-06T05:45:49;18.60;84.90
39045;DHT22;52192;52.002;5.956;2023-08-06T05:48:16;18.60;84.90
39045;DHT22;52192;52.002;5.956;2023-08-06T05:50:41;18.70;84.80
39045;DHT22;52192;52.002;5.956;2023-08-06T05:53:07;18.70;84.80
39045;DHT22;52192;52.002;5.956;2023-08-06T05:55:33;18.70;84.70
39045;DHT22;52192;52.002;5.956;2023-08-06T05:57:59;18.70;84.70
39045;DHT22;52192;52.002;5.956;2023-08-06T06:00:25;18.70;84.60
39045;DHT22;52192;52.002;5.956;2023-08-06T06:02:51;18.70;84.60
39045;DHT22;52192;52.002;5.956;2023-08-06T06:05:17;18.70;84.60
39045;DHT22;52192;52.002;5.956;2023-08-06T06:07:43;18.70;84.70
39045;DHT22;52192;52.002;5.956;2023-08-06T06:10:08;18.70;84.80
39045;DHT22;52192;52.002;5.956;2023-08-06T06:12:34;18.70;84.80
39045;DHT22;52192;52.002;5.956;2023-08-06T06:15:00;18.70;84.90
39045;DHT22;52192;52.002;5.956;2023-08-06T06:17:27;18.70;84.90
39045;DHT22;52192;52.002;5.956;2023-08-06T06:19:52;18.70;84.90
39045;DHT22;52192;52.002;5.956;2023-08-06T06:22:18;18.70;84.80
39045;DHT22;52192;52.002;5.956;2023-08-06T06:24:44;18.70;84.70
39045;DHT22;52192;52.002;5.956;2023-08-06T06:27:09;18.60;84.80
39045;DHT22;52192;52.002;5.956;2023-08-06T06:29:35;18.60;84.90
39045;DHT22;52192;52.002;5.956;2023-08-06T06:32:01;18.60;84.90
39045;DHT22;52192;52.002;5.956;2023-08-06T06:34:27;18.70;84.90
39045;DHT22;52192;52.002;5.956;2023-08-06T06:36:52;18.70;84.90
39045;DHT22;52192;52.002;5.956;2023-08-06T06:39:18;18.70;84.80
39045;DHT22;52192;52.002;5.956;2023-08-06T06:41:44;18.80;84.70
39045;DHT22;52192;52.002;5.956;2023-08-06T06:44:09;18.70;84.60
39045;DHT22;52192;52.002;5.956;2023-08-06T06:46:35;18.80;84.70
39045;DHT22;52192;52.002;5.956;2023-08-06T06:49:01;18.80;84.70
39045;DHT22;52192;52.002;5.956;2023-08-06T06:51:27;18.80;84.60
39045;DHT22;52192;52.002;5.956;2023-08-06T06:53:52;18.70;84.60
39045;DHT22;52192;52.002;5.956;2023-08-06T06:56:18;18.70;84.70
39045;DHT22;52192;52.002;5.956;2023-08-06T06:58:43;18.70;84.60
39045;DHT22;52192;52.002;5.956;2023-08-06T07:01:09;18.70;84.70
39045;DHT22;52192;52.002;5.956;2023-08-06T07:03:37;18.80;84.70
39045;DHT22;52192;52.002;5.956;2023-08-06T07:06:03;18.80;84.70
39045;DHT22;52192;52.002;5.956;2023-08-06T07:08:29;18.80;84.80
39045;DHT22;52192;52.002;5.956;2023-08-06T07:11:05;18.80;84.70
39045;DHT22;52192;52.002;5.956;2023-08-06T07:13:32;18.90;84.70
39045;DHT22;52192;52.002;5.956;2023-08-06T07:15:58;18.80;84.70
39045;DHT22;52192;52.002;5.956;2023-08-06T07:18:24;18.90;84.70
39045;DHT22;52192;52.002;5.956;2023-08-06T07:20:53;18.90;84.60
39045;DHT22;52192;52.002;5.956;2023-08-06T07:23:25;18.80;84.60
39045;DHT22;52192;52.002;5.956;2023-08-06T07:25:50;18.80;84.70
39045;DHT22;52192;52.002;5.956;2023-08-06T07:28:16;18.80;84.90
39045;DHT22;52192;52.002;5.956;2023-08-06T07:30:43;18.80;84.90
39045;DHT22;52192;52.002;5.956;2023-08-06T07:33:09;18.80;84.90
39045;DHT22;52192;52.002;5.956;2023-08-06T07:35:36;18.80;84.90
39045;DHT22;52192;52.002;5.956;2023-08-06T07:38:02;18.90;84.80
39045;DHT22;52192;52.002;5.956;2023-08-06T07:40:28;18.90;84.70
39045;DHT22;52192;52.002;5.956;2023-08-06T07:42:54;18.90;84.80
39045;DHT22;52192;52.002;5.956;2023-08-06T07:45:20;18.90;84.70
39045;DHT22;52192;52.002;5.956;2023-08-06T07:47:46;19.00;84.70
39045;DHT22;52192;52.002;5.956;2023-08-06T07:50:12;18.90;84.60
39045;DHT22;52192;52.002;5.956;2023-08-06T07:52:38;18.90;84.60
39045;DHT22;52192;52.002;5.956;2023-08-06T07:55:04;18.90;84.60
39045;DHT22;52192;52.002;5.956;2023-08-06T07:57:31;18.80;84.70
39045;DHT22;52192;52.002;5.956;2023-08-06T07:59:57;18.80;84.80
39045;DHT22;52192;52.002;5.956;2023-08-06T08:02:23;18.80;84.80
39045;DHT22;52192;52.002;5.956;2023-08-06T08:04:49;18.80;84.80
39045;DHT22;52192;52.002;5.956;2023-08-06T08:07:14;18.80;84.80
39045;DHT22;52192;52.002;5.956;2023-08-06T08:09:40;18.80;84.80
39045;DHT22;52192;52.002;5.956;2023-08-06T08:12:07;18.90;84.90
39045;DHT22;52192;52.002;5.956;2023-08-06T08:14:32;19.00;84.80
39045;DHT22;52192;52.002;5.956;2023-08-06T08:17:01;19.00;84.70
39045;DHT22;52192;52.002;5.956;2023-08-06T08:19:28;19.10;84.60
39045;DHT22;52192;52.002;5.956;2023-08-06T08:21:54;19.20;84.50
39045;DHT22;52192;52.002;5.956;2023-08-06T08:24:20;19.20;84.50
39045;DHT22;52192;52.002;5.956;2023-08-06T08:26:52;19.30;84.40
39045;DHT22;52192;52.002;5.956;2023-08-06T08:29:19;19.40;84.20
39045;DHT22;52192;52.002;5.956;2023-08-06T08:31:45;19.40;84.10
39045;DHT22;52192;52.002;5.956;2023-08-06T08:34:11;19.40;84.20
39045;DHT22;52192;52.002;5.956;2023-08-06T08:36:37;19.40;84.20
39045;DHT22;52192;52.002;5.956;2023-08-06T08:39:02;19.40;84.20
39045;DHT22;52192;52.002;5.956;2023-08-06T08:41:30;19.40;84.20
39045;DHT22;52192;52.002;5.956;2023-08-06T08:43:58;19.50;84.10
39045;DHT22;52192;52.002;5.956;2023-08-06T08:46:25;19.50;84.00
39045;DHT22;52192;52.002;5.956;2023-08-06T08:48:52;19.50;83.90
39045;DHT22;52192;52.002;5.956;2023-08-06T08:51:19;19.50;84.10
39045;DHT22;52192;52.002;5.956;2023-08-06T08:53:45;19.60;84.10
39045;DHT22;52192;52.002;5.956;2023-08-06T08:56:13;19.60;84.00
39045;DHT22;52192;52.002;5.956;2023-08-06T08:58:40;19.70;83.90
39045;DHT22;52192;52.002;5.956;2023-08-06T09:01:06;19.80;83.90
39045;DHT22;52192;52.002;5.956;2023-08-06T09:03:33;19.80;83.80
39045;DHT22;52192;52.002;5.956;2023-08-06T09:06:00;19.80;83.80
39045;DHT22;52192;52.002;5.956;2023-08-06T09:08:37;19.80;83.70
39045;DHT22;52192;52.002;5.956;2023-08-06T09:11:05;19.90;83.90
39045;DHT22;52192;52.002;5.956;2023-08-06T09:13:36;19.90;83.70
39045;DHT22;52192;52.002;5.956;2023-08-06T09:16:02;20.00;83.70
39045;DHT22;52192;52.002;5.956;2023-08-06T09:18:31;20.10;83.60
39045;DHT22;52192;52.002;5.956;2023-08-06T09:20:57;20.10;83.50
39045;DHT22;52192;52.002;5.956;2023-08-06T09:23:30;20.10;83.50
39045;DHT22;52192;52.002;5.956;2023-08-06T09:25:57;20.10;83.30
39045;DHT22;52192;52.002;5.956;2023-08-06T09:28:22;20.10;83.50
39045;DHT22;52192;52.002;5.956;2023-08-06T09:30:50;20.10;83.60
39045;DHT22;52192;52.002;5.956;2023-08-06T09:33:19;20.10;83.60
39045;DHT22;52192;52.002;5.956;2023-08-06T09:35:46;20.10;83.40
39045;DHT22;52192;52.002;5.956;2023-08-06T09:38:12;20.10;83.50
39045;DHT22;52192;52.002;5.956;2023-08-06T09:40:39;20.10;83.40
39045;DHT22;52192;52.002;5.956;2023-08-06T09:43:05;20.10;83.20
39045;DHT22;52192;52.002;5.956;2023-08-06T09:45:33;20.00;83.30
39045;DHT22;52192;52.002;5.956;2023-08-06T09:48:02;19.90;83.30
39045;DHT22;52192;52.002;5.956;2023-08-06T09:50:31;19.80;83.50
39045;DHT22;52192;52.002;5.956;2023-08-06T09:52:57;19.70;83.70
39045;DHT22;52192;52.002;5.956;2023-08-06T09:55:24;19.60;83.60
39045;DHT22;52192;52.002;5.956;2023-08-06T09:57:53;19.60;83.80
39045;DHT22;52192;52.002;5.956;2023-08-06T10:00:19;19.50;83.80
39045;DHT22;52192;52.002;5.956;2023-08-06T10:02:48;19.40;83.60
39045;DHT22;52192;52.002;5.956;2023-08-06T10:05:15;19.30;83.80
39045;DHT22;52192;52.002;5.956;2023-08-06T10:07:43;19.10;84.20
39045;DHT22;52192;52.002;5.956;2023-08-06T10:10:09;19.00;84.20
39045;DHT22;52192;52.002;5.956;2023-08-06T10:12:46;18.90;84.40
39045;DHT22;52192;52.002;5.956;2023-08-06T10:15:16;18.80;84.40
39045;DHT22;52192;52.002;5.956;2023-08-06T10:17:44;18.80;84.50
39045;DHT22;52192;52.002;5.956;2023-08-06T10:20:11;18.70;84.60
39045;DHT22;52192;52.002;5.956;2023-08-06T10:22:42;18.80;84.60
39045;DHT22;52192;52.002;5.956;2023-08-06T10:25:09;18.80;84.50
39045;DHT22;52192;52.002;5.956;2023-08-06T10:30:28;18.80;84.40
39045;DHT22;52192;52.002;5.956;2023-08-06T10:32:59;18.80;84.50
39045;DHT22;52192;52.002;5.956;2023-08-06T10:38:08;18.70;84.70
39045;DHT22;52192;52.002;5.956;2023-08-06T10:40:35;18.70;84.90
39045;DHT22;52192;52.002;5.956;2023-08-06T10:43:03;18.70;85.00
39045;DHT22;52192;52.002;5.956;2023-08-06T10:45:29;18.70;85.00
39045;DHT22;52192;52.002;5.956;2023-08-06T10:47:56;18.70;85.10
39045;DHT22;52192;52.002;5.956;2023-08-06T10:50:23;18.60;85.20
39045;DHT22;52192;52.002;5.956;2023-08-06T10:52:49;18.50;85.20
39045;DHT22;52192;52.002;5.956;2023-08-06T10:55:26;18.40;85.10
39045;DHT22;52192;52.002;5.956;2023-08-06T10:57:52;18.30;84.70
39045;DHT22;52192;52.002;5.956;2023-08-06T11:00:18;18.10;84.90
39045;DHT22;52192;52.002;5.956;2023-08-06T11:02:44;18.00;85.00
39045;DHT22;52192;52.002;5.956;2023-08-06T11:05:10;17.90;85.20
39045;DHT22;52192;52.002;5.956;2023-08-06T11:07:37;17.90;85.30
39045;DHT22;52192;52.002;5.956;2023-08-06T11:10:07;17.90;85.30
39045;DHT22;52192;52.002;5.956;2023-08-06T11:12:34;17.90;85.10
39045;DHT22;52192;52.002;5.956;2023-08-06T11:15:01;17.80;85.00
39045;DHT22;52192;52.002;5.956;2023-08-06T11:17:28;17.70;85.00
39045;DHT22;52192;52.002;5.956;2023-08-06T11:19:55;17.80;85.20
39045;DHT22;52192;52.002;5.956;2023-08-06T11:22:21;17.70;85.10
39045;DHT22;52192;52.002;5.956;2023-08-06T11:24:48;17.80;85.30
39045;DHT22;52192;52.002;5.956;2023-08-06T11:27:14;17.70;85.20
39045;DHT22;52192;52.002;5.956;2023-08-06T11:29:41;17.70;85.20
39045;DHT22;52192;52.002;5.956;2023-08-06T11:32:10;17.70;85.10
39045;DHT22;52192;52.002;5.956;2023-08-06T11:34:37;17.60;85.00
39045;DHT22;52192;52.002;5.956;2023-08-06T11:37:04;17.60;85.10
39045;DHT22;52192;52.002;5.956;2023-08-06T11:39:33;17.60;85.20
39045;DHT22;52192;52.002;5.956;2023-08-06T11:41:59;17.50;85.30
39045;DHT22;52192;52.002;5.956;2023-08-06T11:44:31;17.60;86.00
39045;DHT22;52192;52.002;5.956;2023-08-06T11:47:00;17.50;85.50
39045;DHT22;52192;52.002;5.956;2023-08-06T11:49:43;17.50;85.60
39045;DHT22;52192;52.002;5.956;2023-08-06T11:54:37;17.50;85.80
39045;DHT22;52192;52.002;5.956;2023-08-06T11:57:06;17.40;85.80
39045;DHT22;52192;52.002;5.956;2023-08-06T11:59:32;17.40;85.80
39045;DHT22;52192;52.002;5.956;2023-08-06T12:01:59;17.40;85.90
39045;DHT22;52192;52.002;5.956;2023-08-06T12:04:25;17.40;85.80
39045;DHT22;52192;52.002;5.956;2023-08-06T12:06:51;17.40;85.90
39045;DHT22;52192;52.002;5.956;2023-08-06T12:09:17;17.40;86.00
39045;DHT22;52192;52.002;5.956;2023-08-06T12:11:42;17.40;85.90
39045;DHT22;52192;52.002;5.956;2023-08-06T12:14:08;17.40;85.90
39045;DHT22;52192;52.002;5.956;2023-08-06T12:16:34;17.30;85.80
39045;DHT22;52192;52.002;5.956;2023-08-06T12:19:01;17.30;85.90
39045;DHT22;52192;52.002;5.956;2023-08-06T12:21:27;17.30;86.00
39045;DHT22;52192;52.002;5.956;2023-08-06T12:23:52;17.30;86.00
39045;DHT22;52192;52.002;5.956;2023-08-06T12:26:18;17.20;86.00
39045;DHT22;52192;52.002;5.956;2023-08-06T12:28:44;17.20;86.00
39045;DHT22;52192;52.002;5.956;2023-08-06T12:31:09;17.20;86.10
39045;DHT22;52192;52.002;5.956;2023-08-06T12:33:35;17.10;86.20
39045;DHT22;52192;52.002;5.956;2023-08-06T12:36:01;17.10;86.20
39045;DHT22;52192;52.002;5.956;2023-08-06T12:38:26;17.10;86.30
39045;DHT22;52192;52.002;5.956;2023-08-06T12:40:52;17.10;86.40
39045;DHT22;52192;52.002;5.956;2023-08-06T12:43:17;17.10;86.40
39045;DHT22;52192;52.002;5.956;2023-08-06T12:45:43;17.10;86.40
39045;DHT22;52192;52.002;5.956;2023-08-06T12:48:09;17.20;86.60
39045;DHT22;52192;52.002;5.956;2023-08-06T12:50:36;17.20;86.60
39045;DHT22;52192;52.002;5.956;2023-08-06T12:53:01;17.20;86.60
39045;DHT22;52192;52.002;5.956;2023-08-06T12:55:27;17.20;86.70
39045;DHT22;52192;52.002;5.956;2023-08-06T12:57:53;17.20;86.70
39045;DHT22;52192;52.002;5.956;2023-08-06T13:00:19;17.20;86.70
39045;DHT22;52192;52.002;5.956;2023-08-06T13:02:44;17.30;86.70
39045;DHT22;52192;52.002;5.956;2023-08-06T13:05:10;17.30;86.70
39045;DHT22;52192;52.002;5.956;2023-08-06T13:07:36;17.20;86.80
39045;DHT22;52192;52.002;5.956;2023-08-06T13:10:01;17.20;86.90
39045;DHT22;52192;52.002;5.956;2023-08-06T13:12:27;17.30;86.80
39045;DHT22;52192;52.002;5.956;2023-08-06T13:14:53;17.30;86.80
39045;DHT22;52192;52.002;5.956;2023-08-06T13:17:20;17.30;87.30
39045;DHT22;52192;52.002;5.956;2023-08-06T13:19:46;17.30;86.80
39045;DHT22;52192;52.002;5.956;2023-08-06T13:22:12;17.30;86.90
39045;DHT22;52192;52.002;5.956;2023-08-06T13:24:37;17.20;86.90
39045;DHT22;52192;52.002;5.956;2023-08-06T13:27:03;17.20;87.00
39045;DHT22;52192;52.002;5.956;2023-08-06T13:29:29;17.20;87.10
39045;DHT22;52192;52.002;5.956;2023-08-06T13:31:55;17.20;87.20
39045;DHT22;52192;52.002;5.956;2023-08-06T13:34:21;17.10;87.20
39045;DHT22;52192;52.002;5.956;2023-08-06T13:36:46;17.20;87.20
39045;DHT22;52192;52.002;5.956;2023-08-06T13:39:12;17.20;87.10
39045;DHT22;52192;52.002;5.956;2023-08-06T13:41:40;17.20;87.00
39045;DHT22;52192;52.002;5.956;2023-08-06T13:44:06;17.30;87.10
39045;DHT22;52192;52.002;5.956;2023-08-06T13:46:32;17.30;87.10
39045;DHT22;52192;52.002;5.956;2023-08-06T13:48:57;17.30;87.10
39045;DHT22;52192;52.002;5.956;2023-08-06T13:51:23;17.30;87.10
39045;DHT22;52192;52.002;5.956;2023-08-06T13:53:49;17.30;87.10
39045;DHT22;52192;52.002;5.956;2023-08-06T13:56:14;17.30;87.00
39045;DHT22;52192;52.002;5.956;2023-08-06T13:58:43;17.30;87.00
39045;DHT22;52192;52.002;5.956;2023-08-06T14:01:10;17.30;87.00
39045;DHT22;52192;52.002;5.956;2023-08-06T14:03:36;17.30;87.10
39045;DHT22;52192;52.002;5.956;2023-08-06T14:06:02;17.30;87.10
39045;DHT22;52192;52.002;5.956;2023-08-06T14:08:28;17.30;87.20
39045;DHT22;52192;52.002;5.956;2023-08-06T14:10:54;17.30;87.10
39045;DHT22;52192;52.002;5.956;2023-08-06T14:13:21;17.30;87.00
39045;DHT22;52192;52.002;5.956;2023-08-06T14:15:46;17.30;87.10
39045;DHT22;52192;52.002;5.956;2023-08-06T14:18:13;17.30;87.10
39045;DHT22;52192;52.002;5.956;2023-08-06T14:20:40;17.40;87.00
39045;DHT22;52192;52.002;5.956;2023-08-06T14:23:06;17.40;87.00
39045;DHT22;52192;52.002;5.956;2023-08-06T14:25:31;17.40;86.90
39045;DHT22;52192;52.002;5.956;2023-08-06T14:27:57;17.40;86.90
39045;DHT22;52192;52.002;5.956;2023-08-06T14:30:23;17.40;86.90
39045;DHT22;52192;52.002;5.956;2023-08-06T14:32:49;17.50;87.00
39045;DHT22;52192;52.002;5.956;2023-08-06T14:35:14;17.50;87.00
39045;DHT22;52192;52.002;5.956;2023-08-06T14:37:40;17.50;87.00
39045;DHT22;52192;52.002;5.956;2023-08-06T14:40:07;17.50;87.00
39045;DHT22;52192;52.002;5.956;2023-08-06T14:42:33;17.50;87.60
39045;DHT22;52192;52.002;5.956;2023-08-06T14:44:59;17.50;87.20
39045;DHT22;52192;52.002;5.956;2023-08-06T14:47:25;17.40;87.30
39045;DHT22;52192;52.002;5.956;2023-08-06T14:49:50;17.50;87.40
39045;DHT22;52192;52.002;5.956;2023-08-06T14:52:19;17.50;87.40
39045;DHT22;52192;52.002;5.956;2023-08-06T14:54:45;17.60;87.30
39045;DHT22;52192;52.002;5.956;2023-08-06T14:57:11;17.60;87.20
39045;DHT22;52192;52.002;5.956;2023-08-06T14:59:38;17.70;87.10
39045;DHT22;52192;52.002;5.956;2023-08-06T15:02:05;17.70;87.10
39045;DHT22;52192;52.002;5.956;2023-08-06T15:04:31;17.70;87.70
39045;DHT22;52192;52.002;5.956;2023-08-06T15:06:56;17.70;87.10
39045;DHT22;52192;52.002;5.956;2023-08-06T15:09:22;17.70;87.20
39045;DHT22;52192;52.002;5.956;2023-08-06T15:11:48;17.80;87.20
39045;DHT22;52192;52.002;5.956;2023-08-06T15:14:14;17.80;87.10
39045;DHT22;52192;52.002;5.956;2023-08-06T15:16:40;17.80;87.20
39045;DHT22;52192;52.002;5.956;2023-08-06T15:19:06;17.80;87.20
39045;DHT22;52192;52.002;5.956;2023-08-06T15:21:32;17.80;87.10
39045;DHT22;52192;52.002;5.956;2023-08-06T15:23:58;17.80;87.20
39045;DHT22;52192;52.002;5.956;2023-08-06T15:26:23;17.90;87.30
39045;DHT22;52192;52.002;5.956;2023-08-06T15:28:49;17.90;87.30
39045;DHT22;52192;52.002;5.956;2023-08-06T15:31:15;17.90;87.20
39045;DHT22;52192;52.002;5.956;2023-08-06T15:33:44;18.00;87.10